sensor_id;sensor_type;location;lat;lon;timestamp;temperature;humidity
9790;DHT22;4934;50.852;8.098;2023-08-24T00:01:16;15.00;99.90
9790;DHT22;4934;50.852;8.098;2023-08-24T00:03:44;15.00;99.90
9790;DHT22;4934;50.852;8.098;2023-08-24T00:06:11;15.00;99.90
9790;DHT22;4934;50.852;8.098;2023-08-24T00:08:37;14.90;99.90
9790;DHT22;4934;50.852;8.098;2023-08-24T00:11:02;14.90;99.90
9790;DHT22;4934;50.852;8.098;2023-08-24T00:13:28;14.90;99.90
9790;DHT22;4934;50.852;8.098;2023-08-24T00:15:54;14.90;99.90
9790;DHT22;4934;50.852;8.098;2023-08-24T00:18:20;14.80;99.90
9790;DHT22;4934;50.852;8.098;2023-08-24T00:20:48;14.80;99.90
9790;DHT22;4934;50.852;8.098;2023-08-24T00:23:13;14.80;99.90
9790;DHT22;4934;50.852;8.098;2023-08-24T00:25:39;14.80;99.90
9790;DHT22;4934;50.852;8.098;2023-08-24T00:28:06;14.80;99.90
9790;DHT22;4934;50.852;8.098;2023-08-24T00:30:32;14.70;99.90
9790;DHT22;4934;50.852;8.098;2023-08-24T00:32:58;14.70;99.90
9790;DHT22;4934;50.852;8.098;2023-08-24T00:35:23;14.70;99.90
9790;DHT22;4934;50.852;8.098;2023-08-24T00:37:49;14.70;99.90
9790;DHT22;4934;50.852;8.098;2023-08-24T00:40:16;14.70;99.90
9790;DHT22;4934;50.852;8.098;2023-08-24T00:42:44;14.80;99.90
9790;DHT22;4934;50.852;8.098;2023-08-24T00:45:12;14.80;99.90
9790;DHT22;4934;50.852;8.098;2023-08-24T00:47:40;14.80;99.90
9790;DHT22;4934;50.852;8.098;2023-08-24T00:50:09;14.80;99.90
9790;DHT22;4934;50.852;8.098;2023-08-24T00:52:41;14.70;99.90
9790;DHT22;4934;50.852;8.098;2023-08-24T00:55:07;14.60;99.90
9790;DHT22;4934;50.852;8.098;2023-08-24T00:57:33;14.60;99.90
9790;DHT22;4934;50.852;8.098;2023-08-24T01:00:03;14.50;99.90
9790;DHT22;4934;50.852;8.098;2023-08-24T01:02:31;14.50;99.90
9790;DHT22;4934;50.852;8.098;2023-08-24T01:04:58;14.50;99.90
9790;DHT22;4934;50.852;8.098;2023-08-24T01:07:24;14.40;99.90
9790;DHT22;4934;50.852;8.098;2023-08-24T01:09:50;14.40;99.90
9790;DHT22;4934;50.852;8.098;2023-08-24T01:12:28;14.40;99.90
9790;DHT22;4934;50.852;8.098;2023-08-24T01:17:27;14.40;99.90
9790;DHT22;4934;50.852;8.098;2023-08-24T01:19:55;14.40;99.90
9790;DHT22;4934;50.852;8.098;2023-08-24T01:25:16;14.40;99.90
9790;DHT22;4934;50.852;8.098;2023-08-24T01:27:43;14.30;99.90
9790;DHT22;4934;50.852;8.098;2023-08-24T01:30:09;14.30;99.90
9790;DHT22;4934;50.852;8.098;2023-08-24T01:32:35;14.30;99.90
9790;DHT22;4934;50.852;8.098;2023-08-24T01:35:07;14.30;99.90
9790;DHT22;4934;50.852;8.098;2023-08-24T01:37:34;14.30;99.90
9790;DHT22;4934;50.852;8.098;2023-08-24T01:40:20;14.40;99.90
9790;DHT22;4934;50.852;8.098;2023-08-24T01:42:58;14.40;99.90
9790;DHT22;4934;50.852;8.098;2023-08-24T01:45:27;14.30;99.90
9790;DHT22;4934;50.852;8.098;2023-08-24T01:47:55;14.20;99.90
9790;DHT22;4934;50.852;8.098;2023-08-24T01:50:21;14.10;99.90
9790;DHT22;4934;50.852;8.098;2023-08-24T01:52:47;14.10;99.90
9790;DHT22;4934;50.852;8.098;2023-08-24T01:55:13;14.10;99.90
9790;DHT22;4934;50.852;8.098;2023-08-24T01:57:40;14.20;99.90
9790;DHT22;4934;50.852;8.098;2023-08-24T02:00:06;14.40;99.90
9790;DHT22;4934;50.852;8.098;2023-08-24T02:02:35;14.30;99.90
9790;DHT22;4934;50.852;8.098;2023-08-24T02:05:00;14.20;99.90
9790;DHT22;4934;50.852;8.098;2023-08-24T02:07:26;14.10;99.90
9790;DHT22;4934;50.852;8.098;2023-08-24T02:09:51;14.10;99.90
9790;DHT22;4934;50.852;8.098;2023-08-24T02:12:17;14.00;99.90
9790;DHT22;4934;50.852;8.098;2023-08-24T02:14:42;14.10;99.90
9790;DHT22;4934;50.852;8.098;2023-08-24T02:17:08;14.10;99.90
9790;DHT22;4934;50.852;8.098;2023-08-24T02:19:34;14.00;99.90
9790;DHT22;4934;50.852;8.098;2023-08-24T02:21:59;14.00;99.90
9790;DHT22;4934;50.852;8.098;2023-08-24T02:24:25;14.00;99.90
9790;DHT22;4934;50.852;8.098;2023-08-24T02:26:50;14.10;99.90
9790;DHT22;4934;50.852;8.098;2023-08-24T02:29:16;14.20;99.90
9790;DHT22;4934;50.852;8.098;2023-08-24T02:31:42;14.20;99.90
9790;DHT22;4934;50.852;8.098;2023-08-24T02:34:07;14.20;99.90
9790;DHT22;4934;50.852;8.098;2023-08-24T02:36:33;14.20;99.90
9790;DHT22;4934;50.852;8.098;2023-08-24T02:39:02;14.20;99.90
9790;DHT22;4934;50.852;8.098;2023-08-24T02:41:28;14.00;99.90
9790;DHT22;4934;50.852;8.098;2023-08-24T02:43:54;14.00;99.90
9790;DHT22;4934;50.852;8.098;2023-08-24T02:46:20;13.90;99.90
9790;DHT22;4934;50.852;8.098;2023-08-24T02:48:46;13.90;99.90
9790;DHT22;4934;50.852;8.098;2023-08-24T02:51:12;13.80;99.90
9790;DHT22;4934;50.852;8.098;2023-08-24T02:53:38;13.90;99.90
9790;DHT22;4934;50.852;8.098;2023-08-24T02:56:04;13.80;99.90
9790;DHT22;4934;50.852;8.098;2023-08-24T02:58:29;13.80;99.90
9790;DHT22;4934;50.852;8.098;2023-08-24T03:00:56;13.80;99.90
9790;DHT22;4934;50.852;8.098;2023-08-24T03:03:22;13.80;99.90
9790;DHT22;4934;50.852;8.098;2023-08-24T03:05:59;13.80;99.90
9790;DHT22;4934;50.852;8.098;2023-08-24T03:08:25;13.80;99.90
9790;DHT22;4934;50.852;8.098;2023-08-24T03:10:51;13.80;99.90
9790;DHT22;4934;50.852;8.098;2023-08-24T03:13:17;13.80;99.90
9790;DHT22;4934;50.852;8.098;2023-08-24T03:15:42;14.00;99.90
9790;DHT22;4934;50.852;8.098;2023-08-24T03:18:13;14.10;99.90
9790;DHT22;4934;50.852;8.098;2023-08-24T03:20:39;13.90;99.90
9790;DHT22;4934;50.852;8.098;2023-08-24T03:23:06;13.80;99.90
9790;DHT22;4934;50.852;8.098;2023-08-24T03:25:35;13.80;99.90
9790;DHT22;4934;50.852;8.098;2023-08-24T03:28:02;13.80;99.90
9790;DHT22;4934;50.852;8.098;2023-08-24T03:30:27;13.80;99.90
9790;DHT22;4934;50.852;8.098;2023-08-24T03:32:53;13.80;99.90
9790;DHT22;4934;50.852;8.098;2023-08-24T03:35:19;13.80;99.90
9790;DHT22;4934;50.852;8.098;2023-08-24T03:37:44;13.90;99.90
9790;DHT22;4934;50.852;8.098;2023-08-24T03:40:11;13.90;99.90
9790;DHT22;4934;50.852;8.098;2023-08-24T03:42:36;14.00;99.90
9790;DHT22;4934;50.852;8.098;2023-08-24T03:45:02;14.00;99.90
9790;DHT22;4934;50.852;8.098;2023-08-24T03:47:28;14.10;99.90
9790;DHT22;4934;50.852;8.098;2023-08-24T03:49:54;14.10;99.90
9790;DHT22;4934;50.852;8.098;2023-08-24T03:52:20;14.10;99.90
9790;DHT22;4934;50.852;8.098;2023-08-24T03:54:46;14.20;99.90
9790;DHT22;4934;50.852;8.098;2023-08-24T03:57:11;14.20;99.90
9790;DHT22;4934;50.852;8.098;2023-08-24T03:59:37;14.30;99.90
9790;DHT22;4934;50.852;8.098;2023-08-24T04:02:02;14.40;99.90
9790;DHT22;4934;50.852;8.098;2023-08-24T04:04:29;14.40;99.90
9790;DHT22;4934;50.852;8.098;2023-08-24T04:06:55;14.40;99.90
9790;DHT22;4934;50.852;8.098;2023-08-24T04:09:21;14.30;99.90
9790;DHT22;4934;50.852;8.098;2023-08-24T04:11:47;14.20;99.90
9790;DHT22;4934;50.852;8.098;2023-08-24T04:14:12;14.10;99.90
9790;DHT22;4934;50.852;8.098;2023-08-24T04:16:39;14.20;99.90
9790;DHT22;4934;50.852;8.098;2023-08-24T04:19:05;14.10;99.90
9790;DHT22;4934;50.852;8.098;2023-08-24T04:21:30;14.10;99.90
9790;DHT22;4934;50.852;8.098;2023-08-24T04:23:56;14.20;99.90
9790;DHT22;4934;50.852;8.098;2023-08-24T04:26:23;14.20;99.90
9790;DHT22;4934;50.852;8.098;2023-08-24T04:28:48;14.30;99.90
9790;DHT22;4934;50.852;8.098;2023-08-24T04:31:15;14.40;99.90
9790;DHT22;4934;50.852;8.098;2023-08-24T04:33:41;14.40;99.90
9790;DHT22;4934;50.852;8.098;2023-08-24T04:36:06;14.50;99.90
9790;DHT22;4934;50.852;8.098;2023-08-24T04:38:32;14.60;99.90
9790;DHT22;4934;50.852;8.098;2023-08-24T04:40:58;14.50;99.90
9790;DHT22;4934;50.852;8.098;2023-08-24T04:43:24;14.60;99.90
9790;DHT22;4934;50.852;8.098;2023-08-24T04:45:52;14.60;99.90
9790;DHT22;4934;50.852;8.098;2023-08-24T04:48:18;14.70;99.90
9790;DHT22;4934;50.852;8.098;2023-08-24T04:50:45;14.80;99.90
9790;DHT22;4934;50.852;8.098;2023-08-24T04:53:15;14.70;99.90
9790;DHT22;4934;50.852;8.098;2023-08-24T04:55:41;14.70;99.90
9790;DHT22;4934;50.852;8.098;2023-08-24T04:58:08;14.80;99.90
9790;DHT22;4934;50.852;8.098;2023-08-24T05:00:34;14.80;99.90
9790;DHT22;4934;50.852;8.098;2023-08-24T05:03:03;15.00;99.90
9790;DHT22;4934;50.852;8.098;2023-08-24T05:05:30;15.10;99.90
9790;DHT22;4934;50.852;8.098;2023-08-24T05:07:57;15.10;99.90
9790;DHT22;4934;50.852;8.098;2023-08-24T05:10:22;15.10;99.90
9790;DHT22;4934;50.852;8.098;2023-08-24T05:12:48;15.10;99.90
9790;DHT22;4934;50.852;8.098;2023-08-24T05:15:14;15.20;99.90
9790;DHT22;4934;50.852;8.098;2023-08-24T05:17:40;15.20;99.90
9790;DHT22;4934;50.852;8.098;2023-08-24T05:20:07;15.20;99.90
9790;DHT22;4934;50.852;8.098;2023-08-24T05:22:33;15.20;99.90
9790;DHT22;4934;50.852;8.098;2023-08-24T05:25:00;15.30;99.90
9790;DHT22;4934;50.852;8.098;2023-08-24T05:27:25;15.20;99.90
9790;DHT22;4934;50.852;8.098;2023-08-24T05:29:51;15.20;99.90
9790;DHT22;4934;50.852;8.098;2023-08-24T05:32:17;15.20;99.90
9790;DHT22;4934;50.852;8.098;2023-08-24T05:34:42;15.10;99.90
9790;DHT22;4934;50.852;8.098;2023-08-24T05:37:08;15.20;99.90
9790;DHT22;4934;50.852;8.098;2023-08-24T05:39:33;15.20;99.90
9790;DHT22;4934;50.852;8.098;2023-08-24T05:41:59;15.20;99.90
9790;DHT22;4934;50.852;8.098;2023-08-24T05:44:24;15.40;99.90
9790;DHT22;4934;50.852;8.098;2023-08-24T05:46:50;15.40;99.90
9790;DHT22;4934;50.852;8.098;2023-08-24T05:49:16;15.30;99.90
9790;DHT22;4934;50.852;8.098;2023-08-24T05:51:41;15.40;99.90
9790;DHT22;4934;50.852;8.098;2023-08-24T05:54:07;15.30;99.90
9790;DHT22;4934;50.852;8.098;2023-08-24T05:56:32;15.40;99.90
9790;DHT22;4934;50.852;8.098;2023-08-24T05:58:58;15.40;99.90
9790;DHT22;4934;50.852;8.098;2023-08-24T06:01:24;15.50;99.90
9790;DHT22;4934;50.852;8.098;2023-08-24T06:03:50;15.60;99.90
9790;DHT22;4934;50.852;8.098;2023-08-24T06:06:20;15.70;99.90
9790;DHT22;4934;50.852;8.098;2023-08-24T06:08:46;15.70;99.90
9790;DHT22;4934;50.852;8.098;2023-08-24T06:11:11;15.70;99.90
9790;DHT22;4934;50.852;8.098;2023-08-24T06:13:37;15.70;99.90
9790;DHT22;4934;50.852;8.098;2023-08-24T06:16:02;15.70;99.90
9790;DHT22;4934;50.852;8.098;2023-08-24T06:18:28;15.80;99.90
9790;DHT22;4934;50.852;8.098;2023-08-24T06:20:54;15.80;99.90
9790;DHT22;4934;50.852;8.098;2023-08-24T06:23:20;15.90;99.90
9790;DHT22;4934;50.852;8.098;2023-08-24T06:25:47;16.00;99.90
9790;DHT22;4934;50.852;8.098;2023-08-24T06:28:13;16.10;99.90
9790;DHT22;4934;50.852;8.098;2023-08-24T06:30:40;16.20;99.90
9790;DHT22;4934;50.852;8.098;2023-08-24T06:33:06;16.30;99.90
9790;DHT22;4934;50.852;8.098;2023-08-24T06:35:33;16.40;99.90
9790;DHT22;4934;50.852;8.098;2023-08-24T06:37:59;16.40;99.90
9790;DHT22;4934;50.852;8.098;2023-08-24T06:40:25;16.50;99.90
9790;DHT22;4934;50.852;8.098;2023-08-24T06:42:50;16.60;99.90
9790;DHT22;4934;50.852;8.098;2023-08-24T06:45:16;16.70;99.90
9790;DHT22;4934;50.852;8.098;2023-08-24T06:47:43;16.80;99.90
9790;DHT22;4934;50.852;8.098;2023-08-24T06:50:11;16.80;99.90
9790;DHT22;4934;50.852;8.098;2023-08-24T06:52:36;16.80;99.90
9790;DHT22;4934;50.852;8.098;2023-08-24T06:55:02;16.80;99.90
9790;DHT22;4934;50.852;8.098;2023-08-24T06:57:29;16.80;99.90
9790;DHT22;4934;50.852;8.098;2023-08-24T06:59:54;16.80;99.90
9790;DHT22;4934;50.852;8.098;2023-08-24T07:02:20;16.90;99.90
9790;DHT22;4934;50.852;8.098;2023-08-24T07:04:46;16.90;99.90
9790;DHT22;4934;50.852;8.098;2023-08-24T07:07:11;16.90;99.90
9790;DHT22;4934;50.852;8.098;2023-08-24T07:09:37;16.90;99.90
9790;DHT22;4934;50.852;8.098;2023-08-24T07:12:03;17.00;99.90
9790;DHT22;4934;50.852;8.098;2023-08-24T07:14:32;17.20;99.90
9790;DHT22;4934;50.852;8.098;2023-08-24T07:16:57;17.40;99.90
9790;DHT22;4934;50.852;8.098;2023-08-24T07:19:23;17.60;99.90
9790;DHT22;4934;50.852;8.098;2023-08-24T07:21:48;17.90;99.90
9790;DHT22;4934;50.852;8.098;2023-08-24T07:24:17;18.20;99.90
9790;DHT22;4934;50.852;8.098;2023-08-24T07:26:44;18.40;99.90
9790;DHT22;4934;50.852;8.098;2023-08-24T07:29:11;18.70;99.90
9790;DHT22;4934;50.852;8.098;2023-08-24T07:31:37;18.90;99.90
9790;DHT22;4934;50.852;8.098;2023-08-24T07:34:03;19.00;99.90
9790;DHT22;4934;50.852;8.098;2023-08-24T07:36:29;19.20;99.90
9790;DHT22;4934;50.852;8.098;2023-08-24T07:38:55;19.40;99.90
9790;DHT22;4934;50.852;8.098;2023-08-24T07:41:21;19.60;99.90
9790;DHT22;4934;50.852;8.098;2023-08-24T07:43:47;19.80;99.90
9790;DHT22;4934;50.852;8.098;2023-08-24T07:46:12;19.90;99.90
9790;DHT22;4934;50.852;8.098;2023-08-24T07:48:39;20.10;99.90
9790;DHT22;4934;50.852;8.098;2023-08-24T07:51:05;20.20;99.90
9790;DHT22;4934;50.852;8.098;2023-08-24T07:53:30;20.40;99.90
9790;DHT22;4934;50.852;8.098;2023-08-24T07:55:58;20.60;99.90
9790;DHT22;4934;50.852;8.098;2023-08-24T07:58:25;20.90;99.90
9790;DHT22;4934;50.852;8.098;2023-08-24T08:00:51;21.10;99.90
9790;DHT22;4934;50.852;8.098;2023-08-24T08:03:18;21.30;99.90
9790;DHT22;4934;50.852;8.098;2023-08-24T08:05:44;21.60;99.90
9790;DHT22;4934;50.852;8.098;2023-08-24T08:08:10;21.70;99.90
9790;DHT22;4934;50.852;8.098;2023-08-24T08:10:35;21.90;99.90
9790;DHT22;4934;50.852;8.098;2023-08-24T08:13:01;22.00;99.90
9790;DHT22;4934;50.852;8.098;2023-08-24T08:15:27;22.20;99.90
9790;DHT22;4934;50.852;8.098;2023-08-24T08:17:52;22.30;99.90
9790;DHT22;4934;50.852;8.098;2023-08-24T08:20:18;22.50;99.90
9790;DHT22;4934;50.852;8.098;2023-08-24T08:22:44;22.60;99.90
9790;DHT22;4934;50.852;8.098;2023-08-24T08:25:09;22.70;99.90
9790;DHT22;4934;50.852;8.098;2023-08-24T08:27:35;22.80;99.90
9790;DHT22;4934;50.852;8.098;2023-08-24T08:30:01;22.90;99.90
9790;DHT22;4934;50.852;8.098;2023-08-24T08:32:27;23.10;99.90
9790;DHT22;4934;50.852;8.098;2023-08-24T08:34:54;23.30;99.90
9790;DHT22;4934;50.852;8.098;2023-08-24T08:37:22;23.50;99.90
9790;DHT22;4934;50.852;8.098;2023-08-24T08:39:47;23.70;99.90
9790;DHT22;4934;50.852;8.098;2023-08-24T08:42:16;23.70;99.90
9790;DHT22;4934;50.852;8.098;2023-08-24T08:44:45;23.70;99.90
9790;DHT22;4934;50.852;8.098;2023-08-24T08:47:11;23.80;99.90
9790;DHT22;4934;50.852;8.098;2023-08-24T08:49:42;24.00;99.90
9790;DHT22;4934;50.852;8.098;2023-08-24T08:52:09;24.10;99.90
9790;DHT22;4934;50.852;8.098;2023-08-24T08:54:35;24.00;99.90
9790;DHT22;4934;50.852;8.098;2023-08-24T08:57:01;24.10;99.90
9790;DHT22;4934;50.852;8.098;2023-08-24T08:59:30;24.30;99.90
9790;DHT22;4934;50.852;8.098;2023-08-24T09:02:01;24.30;99.90
9790;DHT22;4934;50.852;8.098;2023-08-24T09:04:31;24.50;99.90
9790;DHT22;4934;50.852;8.098;2023-08-24T09:06:57;24.70;99.90
9790;DHT22;4934;50.852;8.098;2023-08-24T09:09:25;24.80;99.90
9790;DHT22;4934;50.852;8.098;2023-08-24T09:11:51;24.90;99.90
9790;DHT22;4934;50.852;8.098;2023-08-24T09:14:17;24.90;99.90
9790;DHT22;4934;50.852;8.098;2023-08-24T09:16:42;25.00;99.90
9790;DHT22;4934;50.852;8.098;2023-08-24T09:19:11;25.10;99.90
9790;DHT22;4934;50.852;8.098;2023-08-24T09:21:38;25.20;99.90
9790;DHT22;4934;50.852;8.098;2023-08-24T09:24:05;25.30;99.90
9790;DHT22;4934;50.852;8.098;2023-08-24T09:26:33;25.50;99.90
9790;DHT22;4934;50.852;8.098;2023-08-24T09:29:00;25.70;99.90
9790;DHT22;4934;50.852;8.098;2023-08-24T09:31:36;25.60;99.90
9790;DHT22;4934;50.852;8.098;2023-08-24T09:34:02;25.80;99.90
9790;DHT22;4934;50.852;8.098;2023-08-24T09:36:38;25.80;99.90
9790;DHT22;4934;50.852;8.098;2023-08-24T09:39:05;25.90;99.90
9790;DHT22;4934;50.852;8.098;2023-08-24T09:41:41;25.90;99.90
9790;DHT22;4934;50.852;8.098;2023-08-24T09:44:07;26.00;99.90
9790;DHT22;4934;50.852;8.098;2023-08-24T09:46:38;26.10;99.90
9790;DHT22;4934;50.852;8.098;2023-08-24T09:49:08;26.20;99.90
9790;DHT22;4934;50.852;8.098;2023-08-24T09:51:35;26.20;99.90
9790;DHT22;4934;50.852;8.098;2023-08-24T09:54:07;26.00;99.90
9790;DHT22;4934;50.852;8.098;2023-08-24T09:56:39;26.30;99.90
9790;DHT22;4934;50.852;8.098;2023-08-24T09:59:15;26.40;99.90
9790;DHT22;4934;50.852;8.098;2023-08-24T10:01:48;26.60;99.90
9790;DHT22;4934;50.852;8.098;2023-08-24T10:04:25;26.90;99.90
9790;DHT22;4934;50.852;8.098;2023-08-24T10:06:59;27.00;99.90
9790;DHT22;4934;50.852;8.098;2023-08-24T10:09:31;27.00;99.90
9790;DHT22;4934;50.852;8.098;2023-08-24T10:12:02;27.10;99.90
9790;DHT22;4934;50.852;8.098;2023-08-24T10:14:32;27.10;99.90
9790;DHT22;4934;50.852;8.098;2023-08-24T10:17:00;27.00;99.90
9790;DHT22;4934;50.852;8.098;2023-08-24T10:19:27;27.10;99.90
9790;DHT22;4934;50.852;8.098;2023-08-24T10:21:53;27.30;99.90
9790;DHT22;4934;50.852;8.098;2023-08-24T10:24:22;27.40;99.90
9790;DHT22;4934;50.852;8.098;2023-08-24T10:26:48;27.30;99.90
9790;DHT22;4934;50.852;8.098;2023-08-24T10:29:16;27.30;99.90
9790;DHT22;4934;50.852;8.098;2023-08-24T10:31:42;27.30;99.90
9790;DHT22;4934;50.852;8.098;2023-08-24T10:34:09;27.20;99.90
9790;DHT22;4934;50.852;8.098;2023-08-24T10:36:34;27.30;99.90
9790;DHT22;4934;50.852;8.098;2023-08-24T10:39:03;27.40;99.90
9790;DHT22;4934;50.852;8.098;2023-08-24T10:41:49;27.50;99.90
9790;DHT22;4934;50.852;8.098;2023-08-24T10:44:50;27.40;99.90
9790;DHT22;4934;50.852;8.098;2023-08-24T10:47:18;27.50;99.90
9790;DHT22;4934;50.852;8.098;2023-08-24T10:49:45;27.70;99.90
9790;DHT22;4934;50.852;8.098;2023-08-24T10:52:34;27.90;99.90
9790;DHT22;4934;50.852;8.098;2023-08-24T10:55:05;28.00;99.90
9790;DHT22;4934;50.852;8.098;2023-08-24T10:58:01;28.10;99.90
9790;DHT22;4934;50.852;8.098;2023-08-24T11:00:29;28.00;99.90
9790;DHT22;4934;50.852;8.098;2023-08-24T11:02:56;28.10;99.90
9790;DHT22;4934;50.852;8.098;2023-08-24T11:05:29;28.40;99.90
9790;DHT22;4934;50.852;8.098;2023-08-24T11:07:58;28.60;99.90
9790;DHT22;4934;50.852;8.098;2023-08-24T11:13:11;28.30;99.90
9790;DHT22;4934;50.852;8.098;2023-08-24T11:15:38;28.40;99.90
9790;DHT22;4934;50.852;8.098;2023-08-24T11:23:22;29.10;99.90
9790;DHT22;4934;50.852;8.098;2023-08-24T11:25:50;29.20;99.90
9790;DHT22;4934;50.852;8.098;2023-08-24T11:28:20;29.30;99.90
9790;DHT22;4934;50.852;8.098;2023-08-24T11:30:47;29.00;99.90
9790;DHT22;4934;50.852;8.098;2023-08-24T11:33:13;29.00;99.90
9790;DHT22;4934;50.852;8.098;2023-08-24T11:35:42;29.00;99.90
9790;DHT22;4934;50.852;8.098;2023-08-24T11:38:08;29.30;99.90
9790;DHT22;4934;50.852;8.098;2023-08-24T11:40:33;29.30;99.90
9790;DHT22;4934;50.852;8.098;2023-08-24T11:42:59;29.30;99.90
9790;DHT22;4934;50.852;8.098;2023-08-24T11:45:31;29.60;99.90
9790;DHT22;4934;50.852;8.098;2023-08-24T11:47:59;29.80;99.90
9790;DHT22;4934;50.852;8.098;2023-08-24T11:50:28;29.80;99.90
9790;DHT22;4934;50.852;8.098;2023-08-24T11:52:54;30.10;99.90
9790;DHT22;4934;50.852;8.098;2023-08-24T11:55:22;29.90;99.90
9790;DHT22;4934;50.852;8.098;2023-08-24T11:57:47;29.90;99.90
9790;DHT22;4934;50.852;8.098;2023-08-24T12:00:13;30.10;99.90
9790;DHT22;4934;50.852;8.098;2023-08-24T12:02:40;30.00;99.90
9790;DHT22;4934;50.852;8.098;2023-08-24T12:05:06;30.00;99.90
9790;DHT22;4934;50.852;8.098;2023-08-24T12:07:33;30.10;99.90
9790;DHT22;4934;50.852;8.098;2023-08-24T12:10:02;30.20;99.90
9790;DHT22;4934;50.852;8.098;2023-08-24T12:12:28;30.10;99.90
9790;DHT22;4934;50.852;8.098;2023-08-24T12:14:55;30.20;99.90
9790;DHT22;4934;50.852;8.098;2023-08-24T12:17:23;30.30;99.90
9790;DHT22;4934;50.852;8.098;2023-08-24T12:19:59;30.30;99.90
9790;DHT22;4934;50.852;8.098;2023-08-24T12:22:26;30.30;99.90
9790;DHT22;4934;50.852;8.098;2023-08-24T12:24:52;30.20;99.90
9790;DHT22;4934;50.852;8.098;2023-08-24T12:27:26;29.80;99.90
9790;DHT22;4934;50.852;8.098;2023-08-24T12:29:52;29.40;99.90
9790;DHT22;4934;50.852;8.098;2023-08-24T12:32:20;29.50;99.90
9790;DHT22;4934;50.852;8.098;2023-08-24T12:34:47;29.70;99.90
9790;DHT22;4934;50.852;8.098;2023-08-24T12:37:13;29.80;99.90
9790;DHT22;4934;50.852;8.098;2023-08-24T12:39:39;29.80;99.90
9790;DHT22;4934;50.852;8.098;2023-08-24T12:42:05;29.80;99.90
9790;DHT22;4934;50.852;8.098;2023-08-24T12:44:32;29.80;99.90
9790;DHT22;4934;50.852;8.098;2023-08-24T12:46:58;29.80;99.90
9790;DHT22;4934;50.852;8.098;2023-08-24T12:49:24;29.60;99.90
9790;DHT22;4934;50.852;8.098;2023-08-24T12:51:49;29.70;99.90
9790;DHT22;4934;50.852;8.098;2023-08-24T12:54:15;29.70;99.90
9790;DHT22;4934;50.852;8.098;2023-08-24T12:56:40;29.90;99.90
9790;DHT22;4934;50.852;8.098;2023-08-24T12:59:06;30.10;99.90
9790;DHT22;4934;50.852;8.098;2023-08-24T13:01:32;30.20;99.90
9790;DHT22;4934;50.852;8.098;2023-08-24T13:03:58;30.30;99.90
9790;DHT22;4934;50.852;8.098;2023-08-24T13:06:23;30.30;99.90
9790;DHT22;4934;50.852;8.098;2023-08-24T13:08:49;30.40;99.90
9790;DHT22;4934;50.852;8.098;2023-08-24T13:11:15;30.40;99.90
9790;DHT22;4934;50.852;8.098;2023-08-24T13:13:40;30.40;99.90
9790;DHT22;4934;50.852;8.098;2023-08-24T13:16:07;30.30;99.90
9790;DHT22;4934;50.852;8.098;2023-08-24T13:18:33;30.30;99.90
9790;DHT22;4934;50.852;8.098;2023-08-24T13:20:58;30.20;99.90
9790;DHT22;4934;50.852;8.098;2023-08-24T13:23:24;30.10;99.90
9790;DHT22;4934;50.852;8.098;2023-08-24T13:25:49;30.00;99.90
9790;DHT22;4934;50.852;8.098;2023-08-24T13:28:15;29.90;99.90
9790;DHT22;4934;50.852;8.098;2023-08-24T13:30:40;29.70;99.90
9790;DHT22;4934;50.852;8.098;2023-08-24T13:33:08;29.60;99.90
9790;DHT22;4934;50.852;8.098;2023-08-24T13:35:34;29.50;99.90
9790;DHT22;4934;50.852;8.098;2023-08-24T13:38:00;29.50;99.90
9790;DHT22;4934;50.852;8.098;2023-08-24T13:40:25;29.50;99.90
9790;DHT22;4934;50.852;8.098;2023-08-24T13:42:51;29.40;99.90
9790;DHT22;4934;50.852;8.098;2023-08-24T13:45:16;29.30;99.90
9790;DHT22;4934;50.852;8.098;2023-08-24T13:47:42;29.20;99.90
9790;DHT22;4934;50.852;8.098;2023-08-24T13:50:08;29.20;99.90
9790;DHT22;4934;50.852;8.098;2023-08-24T13:52:33;29.10;99.90
9790;DHT22;4934;50.852;8.098;2023-08-24T13:54:59;29.20;99.90
9790;DHT22;4934;50.852;8.098;2023-08-24T13:57:28;29.20;99.90
9790;DHT22;4934;50.852;8.098;2023-08-24T13:59:54;29.30;99.90
9790;DHT22;4934;50.852;8.098;2023-08-24T14:02:19;29.20;99.90
9790;DHT22;4934;50.852;8.098;2023-08-24T14:04:45;29.30;99.90
9790;DHT22;4934;50.852;8.098;2023-08-24T14:07:10;29.30;99.90
9790;DHT22;4934;50.852;8.098;2023-08-24T14:09:36;29.20;99.90
9790;DHT22;4934;50.852;8.098;2023-08-24T14:12:01;29.10;99.90
9790;DHT22;4934;50.852;8.098;2023-08-24T14:14:27;29.00;99.90
9790;DHT22;4934;50.852;8.098;2023-08-24T14:16:56;28.90;99.90
9790;DHT22;4934;50.852;8.098;2023-08-24T14:19:22;28.70;99.90
9790;DHT22;4934;50.852;8.098;2023-08-24T14:21:48;28.50;99.90
9790;DHT22;4934;50.852;8.098;2023-08-24T14:24:14;28.40;99.90
9790;DHT22;4934;50.852;8.098;2023-08-24T14:26:39;28.30;99.90
9790;DHT22;4934;50.852;8.098;2023-08-24T14:29:11;28.00;99.90
9790;DHT22;4934;50.852;8.098;2023-08-24T14:31:37;27.70;99.90
9790;DHT22;4934;50.852;8.098;2023-08-24T14:34:03;27.50;99.90
9790;DHT22;4934;50.852;8.098;2023-08-24T14:36:29;27.70;99.90
9790;DHT22;4934;50.852;8.098;2023-08-24T14:38:54;27.50;99.90
9790;DHT22;4934;50.852;8.098;2023-08-24T14:41:20;27.40;99.90
9790;DHT22;4934;50.852;8.098;2023-08-24T14:43:46;27.30;99.90
9790;DHT22;4934;50.852;8.098;2023-08-24T14:46:12;27.00;99.90
9790;DHT22;4934;50.852;8.098;2023-08-24T14:48:38;26.90;99.90
9790;DHT22;4934;50.852;8.098;2023-08-24T14:51:05;26.80;99.90
9790;DHT22;4934;50.852;8.098;2023-08-24T14:53:30;26.80;99.90
9790;DHT22;4934;50.852;8.098;2023-08-24T14:55:57;26.60;99.90
9790;DHT22;4934;50.852;8.098;2023-08-24T14:58:24;26.60;99.90
9790;DHT22;4934;50.852;8.098;2023-08-24T15:00:51;26.60;99.90
9790;DHT22;4934;50.852;8.098;2023-08-24T15:03:17;26.60;99.90
9790;DHT22;4934;50.852;8.098;2023-08-24T15:05:55;26.70;99.90
9790;DHT22;4934;50.852;8.098;2023-08-24T15:08:22;26.80;99.90
9790;DHT22;4934;50.852;8.098;2023-08-24T15:10:54;26.90;99.90
9790;DHT22;4934;50.852;8.098;2023-08-24T15:13:20;26.80;99.90
9790;DHT22;4934;50.852;8.098;2023-08-24T15:15:45;26.80;99.90
9790;DHT22;4934;50.852;8.098;2023-08-24T15:18:11;26.70;99.90
9790;DHT22;4934;50.852;8.098;2023-08-24T15:20:37;26.80;99.90
9790;DHT22;4934;50.852;8.098;2023-08-24T15:23:02;26.80;99.90
9790;DHT22;4934;50.852;8.098;2023-08-24T15:25:28;26.80;99.90
9790;DHT22;4934;50.852;8.098;2023-08-24T15:27:54;26.80;99.90
9790;DHT22;4934;50.852;8.098;2023-08-24T15:30:19;26.80;99.90
9790;DHT22;4934;50.852;8.098;2023-08-24T15:32:45;26.80;99.90
9790;DHT22;4934;50.852;8.098;2023-08-24T15:35:11;26.80;99.90
9790;DHT22;4934;50.852;8.098;2023-08-24T15:37:36;26.80;99.90
9790;DHT22;4934;50.852;8.098;2023-08-24T15:40:03;26.80;99.90
9790;DHT22;4934;50.852;8.098;2023-08-24T15:42:29;26.70;99.90
9790;DHT22;4934;50.852;8.098;2023-08-24T15:44:55;26.50;99.90
9790;DHT22;4934;50.852;8.098;2023-08-24T15:47:21;26.40;99.90
9790;DHT22;4934;50.852;8.098;2023-08-24T15:49:47;26.40;99.90
9790;DHT22;4934;50.852;8.098;2023-08-24T15:52:13;26.10;99.90
9790;DHT22;4934;50.852;8.098;2023-08-24T15:54:39;26.00;99.90
9790;DHT22;4934;50.852;8.098;2023-08-24T15:57:04;26.00;99.90
9790;DHT22;4934;50.852;8.098;2023-08-24T15:59:30;25.80;99.90
9790;DHT22;4934;50.852;8.098;2023-08-24T16:01:55;25.50;99.90
9790;DHT22;4934;50.852;8.098;2023-08-24T16:04:21;25.30;99.90
9790;DHT22;4934;50.852;8.098;2023-08-24T16:06:47;25.20;99.90
9790;DHT22;4934;50.852;8.098;2023-08-24T16:09:13;25.10;99.90
9790;DHT22;4934;50.852;8.098;2023-08-24T16:11:38;25.00;99.90
9790;DHT22;4934;50.852;8.098;2023-08-24T16:14:04;24.80;99.90